createdAt,value
2017-07-04T00:00:39.480Z,99.90
2017-07-04T00:03:05.691Z,99.90
2017-07-04T00:05:31.855Z,99.90
2017-07-04T00:07:58.048Z,99.90
2017-07-04T00:10:24.214Z,99.90
2017-07-04T00:12:50.379Z,99.90
2017-07-04T00:15:16.579Z,99.90
2017-07-04T00:17:43.530Z,99.90
2017-07-04T00:20:09.687Z,99.90
2017-07-04T00:22:35.855Z,99.90
2017-07-04T00:25:02.074Z,99.90
2017-07-04T00:27:28.263Z,99.90
2017-07-04T00:29:54.457Z,99.90
2017-07-04T00:32:21.407Z,99.90
2017-07-04T00:34:47.580Z,99.90
2017-07-04T00:37:13.748Z,99.90
2017-07-04T00:39:40.679Z,99.90
2017-07-04T00:42:06.895Z,99.90
2017-07-04T00:44:33.101Z,99.90
2017-07-04T00:46:59.347Z,99.90
2017-07-04T00:49:25.544Z,99.90
2017-07-04T00:51:51.709Z,99.90
2017-07-04T00:54:17.925Z,99.90
2017-07-04T00:56:44.081Z,99.90
2017-07-04T00:59:10.262Z,99.90
2017-07-04T01:01:37.379Z,99.90
2017-07-04T01:04:03.540Z,99.90
2017-07-04T01:06:29.707Z,99.90
2017-07-04T01:08:55.912Z,99.90
2017-07-04T01:11:22.076Z,99.90
2017-07-04T01:13:48.236Z,99.90
2017-07-04T01:16:14.435Z,99.90
2017-07-04T01:18:41.340Z,99.90
2017-07-04T01:21:07.568Z,99.90
2017-07-04T01:23:33.765Z,99.90
2017-07-04T01:25:59.935Z,99.90
2017-07-04T01:28:26.136Z,99.90
2017-07-04T01:30:52.339Z,99.90
2017-07-04T01:33:18.527Z,99.90
2017-07-04T01:35:45.488Z,99.90
2017-07-04T01:38:11.687Z,99.90
2017-07-04T01:40:37.879Z,99.90
2017-07-04T01:43:04.159Z,99.90
2017-07-04T01:45:31.136Z,99.90
2017-07-04T01:47:57.321Z,99.90
2017-07-04T01:50:24.271Z,99.90
2017-07-04T01:52:51.200Z,99.90
2017-07-04T01:55:17.404Z,99.90
2017-07-04T01:57:43.668Z,99.90
2017-07-04T02:00:09.839Z,99.90
2017-07-04T02:02:36.043Z,99.90
2017-07-04T02:05:02.207Z,99.90
2017-07-04T02:07:28.375Z,99.90
2017-07-04T02:09:55.334Z,99.90
2017-07-04T02:12:22.267Z,99.90
2017-07-04T02:14:49.179Z,99.90
2017-07-04T02:17:15.631Z,99.90
2017-07-04T02:19:41.804Z,99.90
2017-07-04T02:22:07.967Z,99.90
2017-07-04T02:24:34.177Z,99.90
2017-07-04T02:27:00.347Z,99.90
2017-07-04T02:29:27.253Z,99.90
2017-07-04T02:31:53.451Z,99.90
2017-07-04T02:34:19.612Z,99.90
2017-07-04T02:36:45.784Z,99.90
2017-07-04T02:39:11.994Z,99.90
2017-07-04T02:41:38.900Z,99.90
2017-07-04T02:44:05.135Z,99.90
2017-07-04T02:46:31.327Z,99.90
2017-07-04T02:48:57.523Z,99.90
2017-07-04T02:51:24.535Z,99.90
2017-07-04T02:53:50.751Z,99.90
2017-07-04T02:56:16.920Z,99.90
2017-07-04T02:58:43.880Z,99.90
2017-07-04T03:01:10.052Z,99.90
2017-07-04T03:03:36.253Z,99.90
2017-07-04T03:06:02.464Z,99.90
2017-07-04T03:08:28.634Z,99.90
2017-07-04T03:10:54.835Z,99.90
2017-07-04T03:13:21.047Z,99.90
2017-07-04T03:15:47.216Z,99.90
2017-07-04T03:18:13.376Z,99.90
2017-07-04T03:20:39.570Z,99.90
2017-07-04T03:23:05.735Z,99.90
2017-07-04T03:25:32.639Z,99.90
2017-07-04T03:27:58.829Z,99.90
2017-07-04T03:30:25.004Z,99.90
2017-07-04T03:32:51.285Z,99.90
2017-07-04T03:35:17.451Z,99.90
2017-07-04T03:37:43.615Z,99.90
2017-07-04T03:40:10.559Z,99.90
2017-07-04T03:42:37.464Z,99.90
2017-07-04T03:45:03.647Z,99.90
2017-07-04T03:47:29.857Z,99.90
2017-07-04T03:49:56.759Z,99.90
2017-07-04T03:52:22.941Z,99.90
2017-07-04T03:54:49.128Z,99.90
2017-07-04T03:57:15.356Z,99.90
2017-07-04T03:59:41.536Z,99.90
2017-07-04T04:02:07.719Z,99.90
2017-07-04T04:04:33.910Z,99.90
2017-07-04T04:07:00.082Z,99.90
2017-07-04T04:09:27.031Z,99.90
2017-07-04T04:11:53.943Z,99.90
2017-07-04T04:14:20.116Z,99.90
2017-07-04T04:16:46.332Z,99.90
2017-07-04T04:19:13.241Z,99.90
2017-07-04T04:21:39.416Z,99.90
2017-07-04T04:24:05.627Z,99.90
2017-07-04T04:26:32.547Z,99.90
2017-07-04T04:28:58.706Z,99.90
2017-07-04T04:31:24.953Z,99.90
2017-07-04T04:33:51.119Z,99.90
2017-07-04T04:36:17.279Z,99.90
2017-07-04T04:38:44.237Z,99.90
2017-07-04T04:41:10.449Z,99.90
2017-07-04T04:43:36.596Z,99.90
2017-07-04T04:46:02.805Z,99.90
2017-07-04T04:48:29.726Z,99.90
2017-07-04T04:50:55.883Z,99.90
2017-07-04T04:53:22.823Z,99.90
2017-07-04T04:55:49.764Z,99.90
2017-07-04T04:58:16.729Z,99.90
2017-07-04T05:00:42.936Z,99.90
2017-07-04T05:03:09.855Z,99.90
2017-07-04T05:05:36.132Z,99.90
2017-07-04T05:08:02.332Z,99.90
2017-07-04T05:10:29.247Z,99.90
2017-07-04T05:12:55.488Z,99.90
2017-07-04T05:15:21.660Z,99.90
2017-07-04T05:17:47.828Z,99.90
2017-07-04T05:20:14.029Z,99.90
2017-07-04T05:22:40.197Z,99.90
2017-07-04T05:25:06.367Z,99.90
2017-07-04T05:27:32.561Z,99.90
2017-07-04T05:29:59.472Z,99.90
2017-07-04T05:32:25.655Z,99.90
2017-07-04T05:34:51.859Z,99.90
2017-07-04T05:37:18.776Z,99.90
2017-07-04T05:39:44.953Z,99.90
2017-07-04T05:42:11.224Z,99.90
2017-07-04T05:44:37.384Z,99.90
2017-07-04T05:47:04.359Z,99.90
2017-07-04T05:49:30.856Z,99.90
2017-07-04T05:51:57.033Z,99.90
2017-07-04T05:54:23.197Z,99.90
2017-07-04T05:56:49.406Z,99.90
2017-07-04T05:59:15.571Z,99.90
2017-07-04T06:01:41.760Z,99.90
2017-07-04T06:04:07.959Z,99.90
2017-07-04T06:06:34.147Z,99.90
2017-07-04T06:09:01.055Z,99.90
2017-07-04T06:11:27.292Z,99.90
2017-07-04T06:13:53.465Z,99.90
2017-07-04T06:16:19.641Z,99.90
2017-07-04T06:18:45.848Z,99.90
2017-07-04T06:21:12.035Z,99.90
2017-07-04T06:23:38.971Z,99.90
2017-07-04T06:26:05.910Z,99.90
2017-07-04T06:28:32.084Z,99.90
2017-07-04T06:30:58.312Z,99.90
2017-07-04T06:33:24.474Z,99.90
2017-07-04T06:35:50.640Z,99.90
2017-07-04T06:38:16.895Z,99.90
2017-07-04T06:40:43.126Z,99.90
2017-07-04T06:43:09.307Z,99.90
2017-07-04T06:45:36.263Z,99.50
2017-07-04T06:48:03.225Z,99.50
2017-07-04T06:50:29.411Z,99.30
2017-07-04T06:52:55.609Z,97.40
2017-07-04T06:55:21.817Z,96.80
2017-07-04T06:57:47.990Z,96.70
2017-07-04T07:00:14.192Z,97.00
2017-07-04T07:02:40.364Z,95.20
2017-07-04T07:05:07.339Z,95.00
2017-07-04T07:07:33.583Z,94.90
2017-07-04T07:09:59.772Z,93.70
2017-07-04T07:12:26.136Z,94.40
2017-07-04T07:14:52.353Z,91.80
2017-07-04T07:17:18.534Z,92.60
2017-07-04T07:19:45.471Z,92.30
2017-07-04T07:22:11.675Z,92.00
2017-07-04T07:24:37.868Z,93.00
2017-07-04T07:27:04.104Z,93.40
2017-07-04T07:29:30.270Z,91.50
2017-07-04T07:31:56.469Z,90.30
2017-07-04T07:34:22.699Z,89.40
2017-07-04T07:36:48.907Z,86.40
2017-07-04T07:39:15.100Z,83.20
2017-07-04T07:41:42.056Z,78.20
2017-07-04T07:44:08.962Z,75.90
2017-07-04T07:46:35.128Z,75.70
2017-07-04T07:49:02.071Z,75.00
2017-07-04T07:51:29.021Z,71.70
2017-07-04T07:53:55.265Z,71.60
2017-07-04T07:56:21.471Z,70.70
2017-07-04T07:58:47.640Z,70.00
2017-07-04T08:01:13.810Z,67.20
2017-07-04T08:03:40.740Z,63.50
2017-07-04T08:06:06.904Z,63.30
2017-07-04T08:08:33.103Z,63.00
2017-07-04T08:10:59.295Z,60.00
2017-07-04T08:13:25.506Z,57.20
2017-07-04T08:15:51.721Z,56.30
2017-07-04T08:18:17.892Z,54.40
2017-07-04T08:20:44.060Z,53.30
2017-07-04T08:23:10.256Z,51.60
2017-07-04T08:25:36.451Z,50.10
2017-07-04T08:28:02.663Z,48.10
2017-07-04T08:30:28.848Z,46.80
2017-07-04T08:32:55.785Z,45.90
2017-07-04T08:35:22.012Z,46.10
2017-07-04T08:37:48.448Z,44.70
2017-07-04T08:40:14.640Z,44.20
2017-07-04T08:42:40.875Z,44.40
2017-07-04T08:45:07.072Z,43.50
2017-07-04T08:47:33.258Z,43.00
2017-07-04T08:50:00.223Z,44.90
2017-07-04T08:52:27.161Z,46.00
2017-07-04T08:54:54.084Z,47.20
2017-07-04T08:57:20.282Z,47.20
2017-07-04T08:59:46.529Z,49.50
2017-07-04T09:02:12.736Z,48.80
2017-07-04T09:04:38.919Z,47.40
2017-07-04T09:07:05.887Z,48.80
2017-07-04T09:09:32.061Z,48.80
2017-07-04T09:11:58.241Z,48.10
2017-07-04T09:14:24.468Z,48.20
2017-07-04T09:16:50.640Z,49.60
2017-07-04T09:19:16.829Z,51.50
2017-07-04T09:21:43.051Z,51.90
2017-07-04T09:24:09.233Z,51.50
2017-07-04T09:26:35.438Z,50.90
2017-07-04T09:29:01.645Z,49.70
2017-07-04T09:31:27.845Z,45.90
2017-07-04T09:33:54.059Z,44.70
2017-07-04T09:36:20.240Z,43.50
2017-07-04T09:38:46.459Z,43.60
2017-07-04T09:41:12.687Z,41.90
2017-07-04T09:43:38.872Z,41.00
2017-07-04T09:46:05.983Z,40.00
2017-07-04T09:48:32.215Z,39.90
2017-07-04T09:50:58.389Z,39.20
2017-07-04T09:53:24.586Z,38.80
2017-07-04T09:55:50.785Z,38.70
2017-07-04T09:58:16.980Z,38.10
2017-07-04T10:00:43.198Z,38.90
2017-07-04T10:03:09.409Z,40.60
2017-07-04T10:05:35.584Z,41.20
2017-07-04T10:08:01.767Z,43.60
2017-07-04T10:10:27.937Z,44.50
2017-07-04T10:12:54.178Z,45.30
2017-07-04T10:15:20.370Z,46.40
2017-07-04T10:17:46.544Z,45.30
2017-07-04T10:20:12.767Z,45.30
2017-07-04T10:22:38.931Z,43.20
2017-07-04T10:25:05.104Z,43.60
2017-07-04T10:27:31.315Z,42.00
2017-07-04T10:29:57.524Z,43.10
2017-07-04T10:32:23.706Z,41.10
2017-07-04T10:34:49.915Z,40.70
2017-07-04T10:37:16.095Z,39.20
2017-07-04T10:39:42.273Z,39.40
2017-07-04T10:42:08.476Z,40.40
2017-07-04T10:44:34.648Z,42.60
2017-07-04T10:47:00.849Z,44.50
2017-07-04T10:49:27.028Z,44.20
2017-07-04T10:51:53.238Z,41.70
2017-07-04T10:54:19.448Z,43.50
2017-07-04T10:56:45.624Z,45.90
2017-07-04T10:59:11.841Z,45.50
2017-07-04T11:01:38.031Z,44.20
2017-07-04T11:04:04.260Z,41.80
2017-07-04T11:06:30.424Z,40.10
2017-07-04T11:08:56.856Z,40.00
2017-07-04T11:11:23.060Z,39.50
2017-07-04T11:13:49.241Z,40.70
2017-07-04T11:16:15.455Z,39.80
2017-07-04T11:18:41.691Z,39.80
2017-07-04T11:21:07.867Z,40.20
2017-07-04T11:23:34.786Z,40.90
2017-07-04T11:26:01.012Z,40.90
2017-07-04T11:28:27.193Z,40.30
2017-07-04T11:30:53.407Z,41.50
2017-07-04T11:33:20.336Z,43.50
2017-07-04T11:35:47.250Z,42.00
2017-07-04T11:38:13.472Z,41.40
2017-07-04T11:40:39.661Z,41.70
2017-07-04T11:43:05.850Z,43.70
2017-07-04T11:45:32.107Z,43.20
2017-07-04T11:47:58.288Z,44.10
2017-07-04T11:50:24.464Z,43.80
2017-07-04T11:52:50.684Z,42.30
2017-07-04T11:55:17.650Z,42.60
2017-07-04T11:57:43.824Z,42.60
2017-07-04T12:00:10.020Z,44.50
2017-07-04T12:02:36.229Z,43.00
2017-07-04T12:05:02.409Z,44.00
2017-07-04T12:07:28.575Z,43.90
2017-07-04T12:09:54.767Z,43.70
2017-07-04T12:12:21.008Z,44.30
2017-07-04T12:14:47.992Z,44.50
2017-07-04T12:17:14.228Z,44.40
2017-07-04T12:19:40.452Z,45.40
2017-07-04T12:22:06.636Z,45.50
2017-07-04T12:24:33.556Z,45.10
2017-07-04T12:26:59.767Z,45.00
2017-07-04T12:29:25.936Z,44.40
2017-07-04T12:31:52.847Z,45.20
2017-07-04T12:34:19.049Z,45.10
2017-07-04T12:36:45.224Z,44.10
2017-07-04T12:39:12.232Z,45.60
2017-07-04T12:41:38.419Z,45.00
2017-07-04T12:44:04.598Z,46.00
2017-07-04T12:46:30.815Z,46.70
2017-07-04T12:48:56.992Z,45.80
2017-07-04T12:51:23.183Z,45.40
2017-07-04T12:53:49.372Z,45.20
2017-07-04T12:56:15.560Z,45.80
2017-07-04T12:58:42.555Z,47.10
2017-07-04T13:01:08.729Z,47.10
2017-07-04T13:03:34.925Z,45.90
2017-07-04T13:06:01.124Z,46.80
2017-07-04T13:08:27.308Z,46.90
2017-07-04T13:10:53.565Z,46.70
2017-07-04T13:13:19.731Z,46.00
2017-07-04T13:15:45.905Z,45.50
2017-07-04T13:18:12.859Z,46.50
2017-07-04T13:20:39.061Z,46.40
2017-07-04T13:23:05.242Z,45.70
2017-07-04T13:25:31.480Z,46.60
2017-07-04T13:27:57.660Z,45.40
2017-07-04T13:30:23.840Z,45.60
2017-07-04T13:32:50.074Z,45.70
2017-07-04T13:35:16.257Z,46.00
2017-07-04T13:37:42.424Z,46.30
2017-07-04T13:40:08.644Z,46.40
2017-07-04T13:42:34.807Z,45.50
2017-07-04T13:45:01.793Z,47.10
2017-07-04T13:47:27.975Z,46.30
2017-07-04T13:49:54.147Z,45.90
2017-07-04T13:52:20.384Z,45.90
2017-07-04T13:54:46.591Z,45.70
2017-07-04T13:57:12.777Z,47.10
2017-07-04T13:59:38.984Z,46.70
2017-07-04T14:02:05.167Z,47.20
2017-07-04T14:04:31.372Z,47.70
2017-07-04T14:06:58.371Z,49.10
2017-07-04T14:09:24.548Z,49.10
2017-07-04T14:11:51.471Z,47.50
2017-07-04T14:14:17.679Z,47.50
2017-07-04T14:16:43.878Z,47.60
2017-07-04T14:19:10.054Z,47.70
2017-07-04T14:21:36.256Z,48.10
2017-07-04T14:24:02.456Z,47.70
2017-07-04T14:26:28.670Z,47.80
2017-07-04T14:28:54.887Z,48.20
2017-07-04T14:31:21.800Z,48.20
2017-07-04T14:33:48.063Z,48.20
2017-07-04T14:36:14.281Z,48.90
2017-07-04T14:38:40.461Z,50.40
2017-07-04T14:41:06.631Z,49.30
2017-07-04T14:43:33.599Z,49.20
2017-07-04T14:45:59.769Z,49.20
2017-07-04T14:48:25.965Z,49.90
2017-07-04T14:50:52.180Z,48.80
2017-07-04T14:53:18.376Z,49.70
2017-07-04T14:55:44.577Z,50.10
2017-07-04T14:58:10.813Z,48.50
2017-07-04T15:00:37.020Z,48.70
2017-07-04T15:03:03.220Z,48.90
2017-07-04T15:05:29.393Z,49.40
2017-07-04T15:07:55.604Z,48.90
2017-07-04T15:10:21.787Z,48.50
2017-07-04T15:12:48.700Z,49.50
2017-07-04T15:15:14.917Z,49.40
2017-07-04T15:17:41.105Z,49.30
2017-07-04T15:20:07.303Z,48.30
2017-07-04T15:22:34.261Z,49.50
2017-07-04T15:25:01.181Z,50.20
2017-07-04T15:27:27.379Z,50.20
2017-07-04T15:29:53.615Z,51.10
2017-07-04T15:32:19.858Z,50.90
2017-07-04T15:34:46.054Z,51.60
2017-07-04T15:37:12.294Z,51.60
2017-07-04T15:39:38.467Z,51.00
2017-07-04T15:42:04.721Z,50.40
2017-07-04T15:44:30.974Z,50.70
2017-07-04T15:46:57.193Z,50.70
2017-07-04T15:49:23.396Z,50.50
2017-07-04T15:51:49.669Z,51.00
2017-07-04T15:54:15.921Z,50.40
2017-07-04T15:56:42.117Z,51.60
2017-07-04T15:59:08.337Z,50.90
2017-07-04T16:01:34.548Z,50.30
2017-07-04T16:04:00.744Z,50.70
2017-07-04T16:06:27.730Z,51.10
2017-07-04T16:08:53.934Z,51.10
2017-07-04T16:11:20.139Z,50.30
2017-07-04T16:13:47.092Z,51.10
2017-07-04T16:16:13.284Z,51.00
2017-07-04T16:18:39.478Z,51.00
2017-07-04T16:21:05.681Z,51.50
2017-07-04T16:23:31.848Z,51.90
2017-07-04T16:25:58.057Z,51.90
2017-07-04T16:28:24.253Z,52.70
2017-07-04T16:30:50.433Z,51.70
2017-07-04T16:33:16.673Z,52.60
2017-07-04T16:35:42.869Z,52.50
2017-07-04T16:38:09.061Z,52.00
2017-07-04T16:40:35.320Z,52.90
2017-07-04T16:43:01.512Z,51.70
2017-07-04T16:45:28.429Z,53.00
2017-07-04T16:47:54.645Z,53.00
2017-07-04T16:50:20.846Z,52.60
2017-07-04T16:52:47.045Z,52.50
2017-07-04T16:55:13.260Z,52.70
2017-07-04T16:57:40.221Z,53.00
2017-07-04T17:00:06.400Z,52.80
2017-07-04T17:02:32.571Z,52.60
2017-07-04T17:04:58.784Z,53.00
2017-07-04T17:07:25.728Z,53.10
2017-07-04T17:09:51.916Z,53.00
2017-07-04T17:12:18.125Z,53.70
2017-07-04T17:14:44.423Z,53.50
2017-07-04T17:17:10.647Z,53.60
2017-07-04T17:19:36.836Z,53.20
2017-07-04T17:22:03.031Z,53.30
2017-07-04T17:24:29.268Z,53.30
2017-07-04T17:26:55.438Z,53.60
2017-07-04T17:29:22.359Z,54.10
2017-07-04T17:31:48.728Z,54.10
2017-07-04T17:34:14.900Z,53.80
2017-07-04T17:36:41.080Z,54.10
2017-07-04T17:39:07.316Z,53.80
2017-07-04T17:41:33.528Z,54.00
2017-07-04T17:44:00.448Z,54.40
2017-07-04T17:46:26.656Z,54.30
2017-07-04T17:48:52.840Z,53.90
2017-07-04T17:51:19.019Z,54.60
2017-07-04T17:53:45.265Z,54.70
2017-07-04T17:56:11.436Z,54.30
2017-07-04T17:58:37.678Z,54.50
2017-07-04T18:01:03.902Z,54.80
2017-07-04T18:03:30.207Z,55.10
2017-07-04T18:05:56.410Z,54.30
2017-07-04T18:08:22.708Z,55.00
2017-07-04T18:10:48.905Z,54.80
2017-07-04T18:13:15.079Z,55.20
2017-07-04T18:15:41.300Z,55.00
2017-07-04T18:18:07.506Z,55.00
2017-07-04T18:20:33.703Z,55.20
2017-07-04T18:22:59.924Z,55.50
2017-07-04T18:25:26.133Z,56.10
2017-07-04T18:27:53.061Z,56.10
2017-07-04T18:30:19.354Z,56.00
2017-07-04T18:32:45.564Z,56.10
2017-07-04T18:35:11.818Z,56.10
2017-07-04T18:37:38.009Z,56.30
2017-07-04T18:40:04.234Z,56.20
2017-07-04T18:42:30.516Z,56.50
2017-07-04T18:44:56.712Z,56.60
2017-07-04T18:47:22.937Z,56.60
2017-07-04T18:49:49.147Z,57.00
2017-07-04T18:52:15.340Z,57.40
2017-07-04T18:54:41.587Z,57.30
2017-07-04T18:57:08.521Z,57.50
2017-07-04T18:59:35.452Z,57.70
2017-07-04T19:02:01.713Z,57.70
2017-07-04T19:04:27.891Z,57.80
2017-07-04T19:06:54.068Z,58.10
2017-07-04T19:09:20.280Z,58.10
2017-07-04T19:11:47.268Z,58.60
2017-07-04T19:14:13.460Z,58.60
2017-07-04T19:16:39.685Z,58.60
2017-07-04T19:19:06.606Z,60.00
2017-07-04T19:21:32.830Z,60.00
2017-07-04T19:23:59.012Z,60.20
2017-07-04T19:26:25.199Z,60.80
2017-07-04T19:28:52.161Z,61.90
2017-07-04T19:31:18.357Z,61.80
2017-07-04T19:33:44.817Z,62.40
2017-07-04T19:36:11.057Z,63.50
2017-07-04T19:38:37.248Z,63.60
2017-07-04T19:41:03.492Z,63.80
2017-07-04T19:43:30.438Z,65.00
2017-07-04T19:45:56.619Z,64.80
2017-07-04T19:48:22.837Z,66.10
2017-07-04T19:50:49.311Z,66.10
2017-07-04T19:53:15.624Z,66.50
2017-07-04T19:55:41.828Z,66.60
2017-07-04T19:58:08.053Z,67.00
2017-07-04T20:00:34.248Z,67.10
2017-07-04T20:03:00.499Z,67.10
2017-07-04T20:05:26.691Z,67.50
2017-07-04T20:07:53.606Z,68.80
2017-07-04T20:10:19.842Z,68.60
2017-07-04T20:12:46.081Z,69.30
2017-07-04T20:15:13.013Z,71.20
2017-07-04T20:17:39.318Z,71.40
2017-07-04T20:20:05.544Z,71.00
2017-07-04T20:22:31.768Z,71.40
2017-07-04T20:24:57.957Z,71.90
2017-07-04T20:27:24.123Z,72.40
2017-07-04T20:29:50.341Z,73.40
2017-07-04T20:32:16.525Z,74.10
2017-07-04T20:34:43.486Z,75.00
2017-07-04T20:37:09.678Z,74.90
2017-07-04T20:39:35.903Z,75.40
2017-07-04T20:42:02.098Z,75.90
2017-07-04T20:44:28.292Z,76.80
2017-07-04T20:46:54.535Z,77.10
2017-07-04T20:49:20.700Z,78.80
2017-07-04T20:51:46.880Z,78.60
2017-07-04T20:54:13.093Z,80.20
2017-07-04T20:56:40.011Z,81.60
2017-07-04T20:59:06.188Z,81.60
2017-07-04T21:01:32.409Z,82.20
2017-07-04T21:03:58.585Z,82.70
2017-07-04T21:06:24.811Z,83.00
2017-07-04T21:08:51.016Z,83.40
2017-07-04T21:11:17.214Z,84.60
2017-07-04T21:13:43.418Z,85.20
2017-07-04T21:16:09.589Z,85.70
2017-07-04T21:18:35.845Z,86.40
2017-07-04T21:21:02.060Z,86.70
2017-07-04T21:23:28.249Z,87.10
2017-07-04T21:25:54.436Z,88.30
2017-07-04T21:28:20.648Z,88.60
2017-07-04T21:30:46.829Z,89.10
2017-07-04T21:33:13.009Z,90.00
2017-07-04T21:35:39.209Z,90.10
2017-07-04T21:38:05.390Z,90.60
2017-07-04T21:40:32.360Z,91.90
2017-07-04T21:42:58.564Z,91.90
2017-07-04T21:45:24.745Z,92.50
2017-07-04T21:47:50.978Z,93.40
2017-07-04T21:50:17.185Z,94.30
2017-07-04T21:52:43.380Z,94.60
2017-07-04T21:55:09.816Z,95.20
2017-07-04T21:57:36.740Z,94.90
2017-07-04T22:00:03.003Z,94.90
2017-07-04T22:02:29.160Z,94.90
2017-07-04T22:04:55.336Z,95.40
2017-07-04T22:07:22.305Z,97.70
2017-07-04T22:09:48.494Z,97.70
2017-07-04T22:12:15.412Z,99.90
2017-07-04T22:14:41.616Z,99.90
2017-07-04T22:17:07.816Z,99.90
2017-07-04T22:19:34.050Z,99.90
2017-07-04T22:22:00.257Z,99.90
2017-07-04T22:24:27.193Z,99.90
2017-07-04T22:26:54.153Z,99.90
2017-07-04T22:29:21.067Z,99.90
2017-07-04T22:31:47.256Z,99.90
2017-07-04T22:34:13.488Z,99.90
2017-07-04T22:36:39.661Z,99.90
2017-07-04T22:39:06.573Z,99.90
2017-07-04T22:41:32.779Z,99.90
2017-07-04T22:43:58.968Z,99.90
2017-07-04T22:46:25.936Z,99.90
2017-07-04T22:48:52.106Z,99.90
2017-07-04T22:51:18.293Z,99.90
2017-07-04T22:53:44.785Z,99.90
2017-07-04T22:56:10.980Z,99.90
2017-07-04T22:58:37.186Z,99.90
2017-07-04T23:01:03.359Z,99.90
2017-07-04T23:03:29.581Z,99.90
2017-07-04T23:05:55.764Z,99.90
2017-07-04T23:08:21.926Z,99.90
2017-07-04T23:10:48.135Z,99.90
2017-07-04T23:13:14.348Z,99.90
2017-07-04T23:15:40.524Z,99.90
2017-07-04T23:18:06.748Z,99.90
2017-07-04T23:20:32.923Z,99.90
2017-07-04T23:22:59.113Z,99.90
2017-07-04T23:25:25.343Z,99.90
2017-07-04T23:27:51.555Z,99.90
2017-07-04T23:30:17.733Z,99.90
2017-07-04T23:32:43.917Z,99.90
2017-07-04T23:35:10.119Z,99.90
2017-07-04T23:37:36.296Z,99.90
2017-07-04T23:40:02.484Z,99.90
2017-07-04T23:42:28.683Z,99.90
2017-07-04T23:44:54.868Z,99.90
2017-07-04T23:47:21.776Z,99.90
2017-07-04T23:49:48.019Z,99.90
2017-07-04T23:52:14.199Z,99.90
2017-07-04T23:54:40.380Z,99.90
2017-07-04T23:57:06.597Z,99.90
2017-07-04T23:59:32.774Z,99.90
